Time;durP1;ratioP1;P1;durP2;ratioP2;P2;SDS_P1;SDS_P2;PMS_P1;PMS_P2;Temp;Humidity;BMP_temperature;BMP_pressure;BME280_temperature;BME280_humidity;BME280_pressure;Samples;Min_cycle;Max_cycle;Signal;HPM_P1;HPM_P2
2021/05/01 00:01:16;;;;;;;13.55;11.70;;;7.90;87.20;;;;;;4981917;28;20042;-68
2021/05/01 00:03:41;;;;;;;15.07;11.80;;;7.90;87.30;;;;;;4981428;28;20022;-68
2021/05/01 00:06:07;;;;;;;14.35;11.43;;;7.90;87.50;;;;;;4981817;28;20034;-68
2021/05/01 00:08:33;;;;;;;14.93;11.98;;;8.00;87.20;;;;;;4980324;28;20435;-68
2021/05/01 00:11:02;;;;;;;19.75;12.02;;;7.90;87.50;;;;;;4981663;28;20038;-68
2021/05/01 00:13:29;;;;;;;20.17;12.40;;;7.90;87.40;;;;;;4983791;28;20041;-68
2021/05/01 00:15:55;;;;;;;14.27;11.88;;;7.90;87.30;;;;;;4976217;28;20125;-69
2021/05/01 00:18:20;;;;;;;16.38;12.13;;;7.90;87.30;;;;;;4982369;28;20096;-68
2021/05/01 00:20:46;;;;;;;16.20;12.48;;;7.90;87.40;;;;;;4977714;28;20031;-69
2021/05/01 00:23:12;;;;;;;15.50;12.02;;;7.80;87.40;;;;;;4981386;28;20395;-68
2021/05/01 00:25:37;;;;;;;15.43;12.13;;;7.90;87.40;;;;;;4980359;28;20069;-68
2021/05/01 00:28:03;;;;;;;16.15;12.65;;;7.90;87.60;;;;;;4981022;28;20045;-67
2021/05/01 00:30:29;;;;;;;16.63;12.50;;;7.90;87.70;;;;;;4980559;28;20120;-68
2021/05/01 00:32:56;;;;;;;15.05;12.32;;;7.90;87.80;;;;;;4980190;28;20042;-68
2021/05/01 00:35:22;;;;;;;13.82;11.85;;;7.90;87.60;;;;;;4982573;28;20519;-69
2021/05/01 00:37:48;;;;;;;16.73;12.07;;;7.90;87.70;;;;;;4978446;28;20416;-68
2021/05/01 00:40:14;;;;;;;17.02;12.57;;;7.90;87.70;;;;;;4978581;28;20026;-68
2021/05/01 00:42:39;;;;;;;19.23;13.10;;;7.90;87.80;;;;;;4979602;28;20046;-67
2021/05/01 00:45:06;;;;;;;14.65;12.23;;;7.90;87.80;;;;;;4983712;28;20065;-67
2021/05/01 00:47:31;;;;;;;14.95;12.40;;;7.90;88.00;;;;;;4981722;28;20034;-68
2021/05/01 00:49:57;;;;;;;14.30;12.52;;;7.90;87.90;;;;;;4979872;28;20041;-67
2021/05/01 00:52:23;;;;;;;17.27;12.75;;;7.80;88.10;;;;;;4985802;28;20423;-69
2021/05/01 00:54:48;;;;;;;15.60;13.07;;;7.90;88.20;;;;;;4967830;28;20503;-69
2021/05/01 00:57:14;;;;;;;16.05;13.18;;;7.80;88.20;;;;;;4984803;28;20545;-67
2021/05/01 00:59:40;;;;;;;16.42;13.30;;;7.80;88.40;;;;;;4978948;28;20022;-68
2021/05/01 01:02:06;;;;;;;17.08;13.93;;;7.90;88.40;;;;;;4981795;28;20531;-68
2021/05/01 01:04:32;;;;;;;17.23;13.50;;;7.80;88.50;;;;;;4979450;28;20098;-68
2021/05/01 01:06:58;;;;;;;14.88;13.23;;;7.80;88.70;;;;;;4978734;28;20419;-68
2021/05/01 01:09:24;;;;;;;16.70;13.27;;;7.80;88.70;;;;;;4970313;28;20031;-68
2021/05/01 01:11:49;;;;;;;18.70;14.57;;;7.80;89.00;;;;;;4970673;28;20038;-68
2021/05/01 01:14:15;;;;;;;20.27;14.25;;;7.80;89.00;;;;;;4973686;28;20105;-67
2021/05/01 01:16:44;;;;;;;16.77;13.20;;;7.80;89.00;;;;;;4971814;28;20045;-68
2021/05/01 01:19:12;;;;;;;17.33;14.23;;;7.80;88.90;;;;;;4976133;28;20396;-68
2021/05/01 01:21:43;;;;;;;17.15;13.85;;;7.80;89.00;;;;;;4980136;28;20038;-68
2021/05/01 01:24:10;;;;;;;19.75;15.30;;;7.80;89.00;;;;;;4972788;28;20048;-68
2021/05/01 01:26:38;;;;;;;17.23;14.30;;;7.80;89.10;;;;;;4978265;28;20038;-67
2021/05/01 01:29:06;;;;;;;17.10;14.23;;;7.80;89.10;;;;;;4975752;28;20491;-68
2021/05/01 01:31:32;;;;;;;18.00;13.85;;;7.80;89.10;;;;;;4981577;28;20326;-67
2021/05/01 01:33:59;;;;;;;18.73;14.68;;;7.80;89.20;;;;;;4985010;28;20045;-68
2021/05/01 01:36:25;;;;;;;18.60;14.57;;;7.80;89.20;;;;;;4970986;28;20177;-68
2021/05/01 01:38:51;;;;;;;19.90;14.98;;;7.80;89.30;;;;;;4978184;28;20133;-67
2021/05/01 01:41:16;;;;;;;16.55;14.00;;;7.80;89.40;;;;;;4981397;28;20122;-67
2021/05/01 01:43:42;;;;;;;17.70;15.40;;;7.80;89.40;;;;;;4986726;28;20041;-67
2021/05/01 01:46:08;;;;;;;19.25;14.57;;;7.80;89.50;;;;;;4990226;28;20061;-68
2021/05/01 01:48:33;;;;;;;18.10;14.40;;;7.80;89.60;;;;;;4989222;28;20112;-68
2021/05/01 01:50:59;;;;;;;18.23;15.02;;;7.80;89.60;;;;;;4991014;28;20409;-67
2021/05/01 01:53:25;;;;;;;18.08;15.35;;;7.70;89.60;;;;;;4990750;28;20100;-68
2021/05/01 01:55:51;;;;;;;18.80;15.23;;;7.80;89.70;;;;;;4981680;28;20033;-68
2021/05/01 01:58:21;;;;;;;18.48;14.20;;;7.80;89.60;;;;;;4984893;28;20034;-68
2021/05/01 02:00:47;;;;;;;17.63;13.80;;;7.80;89.60;;;;;;4989120;28;20412;-68
2021/05/01 02:03:14;;;;;;;18.33;14.40;;;7.80;89.60;;;;;;4967115;28;20030;-68
2021/05/01 02:05:41;;;;;;;16.67;13.55;;;7.80;89.60;;;;;;4991101;28;20572;-68
2021/05/01 02:08:07;;;;;;;19.00;13.88;;;7.70;89.60;;;;;;4988351;28;20026;-68
2021/05/01 02:10:33;;;;;;;17.67;13.80;;;7.70;89.70;;;;;;4990529;28;20030;-68
2021/05/01 02:12:59;;;;;;;15.77;12.95;;;7.70;89.70;;;;;;4992303;28;20057;-68
2021/05/01 02:15:25;;;;;;;17.77;14.70;;;7.70;89.80;;;;;;4968901;28;20467;-68
2021/05/01 02:17:52;;;;;;;17.40;13.77;;;7.60;89.80;;;;;;4986489;28;20034;-68
2021/05/01 02:20:21;;;;;;;19.58;14.10;;;7.60;89.90;;;;;;4972475;28;20041;-68
2021/05/01 02:22:48;;;;;;;17.05;12.75;;;7.60;89.90;;;;;;4988333;28;20038;-68
2021/05/01 02:25:14;;;;;;;15.77;12.65;;;7.60;89.90;;;;;;4988653;28;20030;-68
2021/05/01 02:27:40;;;;;;;16.17;12.77;;;7.60;90.00;;;;;;4990005;28;20084;-68
2021/05/01 02:30:08;;;;;;;15.80;12.77;;;7.60;90.10;;;;;;4984482;28;20495;-67
2021/05/01 02:32:34;;;;;;;17.35;12.35;;;7.60;90.20;;;;;;4989399;28;20058;-68
2021/05/01 02:35:00;;;;;;;15.90;12.95;;;7.60;90.10;;;;;;4979100;28;20027;-67
2021/05/01 02:37:26;;;;;;;18.05;12.93;;;7.60;90.10;;;;;;4976397;28;20042;-68
2021/05/01 02:39:52;;;;;;;16.45;12.68;;;7.60;90.10;;;;;;4986000;28;20038;-67
2021/05/01 02:42:17;;;;;;;15.70;12.05;;;7.50;90.10;;;;;;4983174;28;20027;-67
2021/05/01 02:44:43;;;;;;;17.20;12.15;;;7.50;90.10;;;;;;4983291;28;20034;-68
2021/05/01 02:47:09;;;;;;;16.10;11.57;;;7.50;90.10;;;;;;4989091;28;20030;-67
2021/05/01 02:49:34;;;;;;;16.10;12.23;;;7.50;90.20;;;;;;4990441;28;20034;-68
2021/05/01 02:52:00;;;;;;;16.48;12.35;;;7.50;90.20;;;;;;4990463;28;20026;-68
2021/05/01 02:54:25;;;;;;;14.60;11.23;;;7.40;90.20;;;;;;4976219;28;20034;-68
2021/05/01 02:56:51;;;;;;;14.80;11.40;;;7.40;90.30;;;;;;4981342;28;20030;-68
2021/05/01 02:59:17;;;;;;;14.05;10.95;;;7.40;90.20;;;;;;4985744;28;20031;-67
2021/05/01 03:01:42;;;;;;;14.88;11.75;;;7.40;90.30;;;;;;4970420;28;20030;-69
2021/05/01 03:04:08;;;;;;;15.85;11.20;;;7.40;90.40;;;;;;4989262;28;20038;-68
2021/05/01 03:06:33;;;;;;;17.52;11.85;;;7.30;90.50;;;;;;4990181;28;20054;-68
2021/05/01 03:08:59;;;;;;;15.50;11.20;;;7.40;90.60;;;;;;4989053;28;20026;-68
2021/05/01 03:11:25;;;;;;;14.35;10.50;;;7.30;90.50;;;;;;4990092;28;20616;-68
2021/05/01 03:13:50;;;;;;;16.52;11.48;;;7.30;90.60;;;;;;4990721;28;20288;-68
2021/05/01 03:16:16;;;;;;;12.80;9.85;;;7.30;90.50;;;;;;4986100;28;20034;-68
2021/05/01 03:18:42;;;;;;;13.73;10.25;;;7.30;90.50;;;;;;4978519;28;20039;-67
2021/05/01 03:21:07;;;;;;;12.75;10.43;;;7.30;90.50;;;;;;4989338;28;20233;-68
2021/05/01 03:23:33;;;;;;;13.43;10.40;;;7.30;90.50;;;;;;4982545;28;20126;-67
2021/05/01 03:25:59;;;;;;;13.80;10.38;;;7.20;90.40;;;;;;4985453;28;20050;-68
2021/05/01 03:28:24;;;;;;;14.98;10.35;;;7.30;90.30;;;;;;4988038;28;20038;-68
2021/05/01 03:30:50;;;;;;;11.98;9.70;;;7.20;90.40;;;;;;4984816;28;20026;-68
2021/05/01 03:33:16;;;;;;;13.75;10.07;;;7.20;90.10;;;;;;4970362;28;20396;-69
2021/05/01 03:35:42;;;;;;;12.40;9.60;;;7.20;90.30;;;;;;4965070;28;20061;-69
2021/05/01 03:38:07;;;;;;;14.30;10.05;;;7.20;90.10;;;;;;4979872;28;20035;-68
2021/05/01 03:40:33;;;;;;;12.98;9.80;;;7.20;90.20;;;;;;4979708;28;20034;-68
2021/05/01 03:42:59;;;;;;;14.88;10.75;;;7.20;90.20;;;;;;4982866;28;20080;-68
2021/05/01 03:45:24;;;;;;;12.05;9.40;;;7.20;90.20;;;;;;4988477;28;20027;-68
2021/05/01 03:47:50;;;;;;;16.00;9.82;;;7.10;90.00;;;;;;4986236;28;20026;-68
2021/05/01 03:50:16;;;;;;;14.50;9.57;;;7.10;90.10;;;;;;4984119;28;20383;-68
2021/05/01 03:52:41;;;;;;;14.50;9.45;;;7.20;90.20;;;;;;4987099;28;20026;-68
2021/05/01 03:55:08;;;;;;;13.45;9.82;;;7.20;90.00;;;;;;4989542;28;20037;-68
2021/05/01 03:57:34;;;;;;;11.45;9.48;;;7.10;90.10;;;;;;4988677;28;20022;-68
2021/05/01 04:00:00;;;;;;;14.38;9.85;;;7.20;90.20;;;;;;4987359;28;20030;-67
2021/05/01 04:02:26;;;;;;;12.38;8.75;;;7.10;90.30;;;;;;4969656;28;20036;-68
2021/05/01 04:04:51;;;;;;;11.75;9.15;;;7.10;90.10;;;;;;4982681;28;20038;-68
2021/05/01 04:07:17;;;;;;;11.80;8.88;;;7.10;90.00;;;;;;4982113;28;20034;-68
2021/05/01 04:09:43;;;;;;;11.73;8.45;;;7.10;89.90;;;;;;4969910;28;20085;-68
2021/05/01 04:12:08;;;;;;;11.88;9.30;;;7.10;90.10;;;;;;4970636;28;20063;-68
2021/05/01 04:14:34;;;;;;;11.93;7.63;;;7.10;89.90;;;;;;4972967;28;20045;-68
2021/05/01 04:17:00;;;;;;;10.65;7.90;;;7.10;89.80;;;;;;4986461;28;20435;-68
2021/05/01 04:19:25;;;;;;;13.77;9.02;;;7.10;89.80;;;;;;4970495;28;20569;-68
2021/05/01 04:21:51;;;;;;;11.30;8.55;;;7.10;89.80;;;;;;4986552;28;20545;-68
2021/05/01 04:24:17;;;;;;;11.88;8.55;;;7.10;89.80;;;;;;4985529;28;20030;-68
2021/05/01 04:26:42;;;;;;;10.98;8.38;;;7.20;89.80;;;;;;4983610;28;20499;-68
2021/05/01 04:29:08;;;;;;;14.48;8.80;;;7.10;89.80;;;;;;4987048;28;20530;-68
2021/05/01 04:31:34;;;;;;;12.38;9.35;;;7.10;89.80;;;;;;4986817;28;20041;-67
2021/05/01 04:33:59;;;;;;;11.00;8.35;;;7.10;89.80;;;;;;4985778;28;20026;-67
2021/05/01 04:36:25;;;;;;;13.20;8.20;;;7.10;89.70;;;;;;4988883;28;20030;-68
2021/05/01 04:38:50;;;;;;;11.80;8.45;;;7.10;90.00;;;;;;4984627;28;20085;-68
2021/05/01 04:41:16;;;;;;;12.45;9.15;;;7.10;90.00;;;;;;4977894;28;20753;-67
2021/05/01 04:43:46;;;;;;;11.27;8.63;;;7.10;89.90;;;;;;4984845;28;20022;-68
2021/05/01 04:46:17;;;;;;;15.50;9.32;;;7.20;90.20;;;;;;4981156;28;20041;-68
2021/05/01 04:48:42;;;;;;;11.27;8.07;;;7.10;90.00;;;;;;4978639;28;20065;-68
2021/05/01 04:51:08;;;;;;;11.70;8.60;;;7.20;89.80;;;;;;4972304;28;20536;-68
2021/05/01 04:53:34;;;;;;;12.32;8.30;;;7.20;90.00;;;;;;4974287;28;20045;-67
2021/05/01 04:55:59;;;;;;;12.20;8.10;;;7.30;90.10;;;;;;4982645;28;20022;-69
2021/05/01 04:58:25;;;;;;;13.10;8.70;;;7.20;89.90;;;;;;4984713;28;20196;-68
2021/05/01 05:00:51;;;;;;;13.23;9.00;;;7.30;89.80;;;;;;4985784;28;20023;-68
2021/05/01 05:03:16;;;;;;;11.82;8.23;;;7.20;89.50;;;;;;4986820;28;20118;-68
2021/05/01 05:05:42;;;;;;;11.00;7.80;;;7.20;89.50;;;;;;4962364;28;20037;-69
2021/05/01 05:08:07;;;;;;;11.65;8.73;;;7.30;89.60;;;;;;4992641;28;20073;-69
2021/05/01 05:10:33;;;;;;;12.65;8.73;;;7.30;89.60;;;;;;4990136;28;20026;-68
2021/05/01 05:12:58;;;;;;;10.13;7.47;;;7.30;89.40;;;;;;4966154;28;20129;-70
2021/05/01 05:15:24;;;;;;;10.50;8.48;;;7.30;89.40;;;;;;4992892;28;20034;-68
2021/05/01 05:17:50;;;;;;;13.95;8.05;;;7.30;89.60;;;;;;4992674;28;20088;-68
2021/05/01 05:20:16;;;;;;;10.70;8.15;;;7.30;89.50;;;;;;4991917;28;20026;-68
2021/05/01 05:22:41;;;;;;;11.02;8.25;;;7.40;89.50;;;;;;4978398;28;20035;-68
2021/05/01 05:25:07;;;;;;;10.52;7.95;;;7.30;89.50;;;;;;4982894;28;20034;-68
2021/05/01 05:27:33;;;;;;;9.40;7.70;;;7.30;89.40;;;;;;4986910;28;20038;-69
2021/05/01 05:29:59;;;;;;;11.80;7.60;;;7.40;89.40;;;;;;4991899;28;20490;-68
2021/05/01 05:32:25;;;;;;;9.63;7.30;;;7.40;89.40;;;;;;4989548;28;20030;-68
2021/05/01 05:34:52;;;;;;;11.07;7.85;;;7.50;89.50;;;;;;4988426;28;20122;-68
2021/05/01 05:37:18;;;;;;;10.88;7.57;;;7.50;89.40;;;;;;4989088;28;20038;-69
2021/05/01 05:39:48;;;;;;;10.10;7.28;;;7.50;89.20;;;;;;4993417;28;20635;-69
2021/05/01 05:42:14;;;;;;;10.27;8.02;;;7.50;89.10;;;;;;4971470;28;20070;-69
2021/05/01 05:44:42;;;;;;;10.05;7.07;;;7.60;89.00;;;;;;4990911;28;20030;-68
2021/05/01 05:47:08;;;;;;;13.98;7.88;;;7.50;89.00;;;;;;4985165;28;20033;-68
2021/05/01 05:49:34;;;;;;;11.68;7.00;;;7.50;88.60;;;;;;4988694;28;20034;-68
2021/05/01 05:51:59;;;;;;;11.80;7.45;;;7.60;88.60;;;;;;4990919;28;20027;-69
2021/05/01 05:54:25;;;;;;;9.07;6.97;;;7.70;88.40;;;;;;4991207;28;20034;-68
2021/05/01 05:56:51;;;;;;;11.80;7.25;;;7.70;88.30;;;;;;4991614;28;20018;-68
2021/05/01 05:59:16;;;;;;;10.43;7.22;;;7.70;88.10;;;;;;4988850;28;20026;-68
2021/05/01 06:01:46;;;;;;;9.90;7.45;;;7.70;88.10;;;;;;4983396;28;20128;-68
2021/05/01 06:04:29;;;;;;;10.55;7.10;;;7.80;88.10;;;;;;4985852;28;20038;-68
2021/05/01 06:07:05;;;;;;;9.43;7.05;;;7.80;87.90;;;;;;4986854;28;20030;-68
2021/05/01 06:09:31;;;;;;;12.85;7.22;;;7.80;87.90;;;;;;4982328;28;20026;-67
2021/05/01 06:11:59;;;;;;;9.93;7.05;;;7.80;88.00;;;;;;4990257;28;20379;-68
2021/05/01 06:14:27;;;;;;;10.70;6.85;;;7.90;88.10;;;;;;4989040;28;20068;-68
2021/05/01 06:16:55;;;;;;;12.65;7.35;;;7.90;87.40;;;;;;4982595;28;20475;-68
2021/05/01 06:19:21;;;;;;;10.50;6.88;;;8.10;87.30;;;;;;4982728;28;20054;-68
2021/05/01 06:21:48;;;;;;;11.75;6.93;;;8.10;87.10;;;;;;4980226;28;20066;-68
2021/05/01 06:24:13;;;;;;;9.85;7.35;;;8.00;87.20;;;;;;4982116;28;20030;-67
2021/05/01 06:26:40;;;;;;;14.50;7.10;;;7.90;87.40;;;;;;4986049;28;20034;-69
2021/05/01 06:29:06;;;;;;;11.60;7.28;;;7.90;86.60;;;;;;4980512;28;20038;-68
2021/05/01 06:31:36;;;;;;;10.93;7.78;;;8.00;87.50;;;;;;4982686;28;20026;-69
2021/05/01 06:34:02;;;;;;;10.30;7.13;;;8.10;86.90;;;;;;4984999;28;20041;-69
2021/05/01 06:36:28;;;;;;;8.95;6.50;;;8.20;86.70;;;;;;4985810;28;20110;-68
2021/05/01 06:38:58;;;;;;;9.48;6.80;;;8.30;86.70;;;;;;4986135;28;20026;-68
2021/05/01 06:41:26;;;;;;;10.18;7.47;;;8.40;86.40;;;;;;4985133;28;20846;-68
2021/05/01 06:44:04;;;;;;;9.77;6.70;;;8.50;85.80;;;;;;4978541;28;20090;-69
2021/05/01 06:46:33;;;;;;;9.13;6.50;;;8.50;85.50;;;;;;4979050;28;20031;-68
2021/05/01 06:49:05;;;;;;;10.00;7.03;;;8.50;85.30;;;;;;4980815;28;20030;-68
2021/05/01 06:51:37;;;;;;;10.82;6.80;;;8.60;85.40;;;;;;4979141;28;20098;-69
2021/05/01 06:54:06;;;;;;;9.70;6.43;;;8.50;85.00;;;;;;4978063;28;20096;-68
2021/05/01 06:56:32;;;;;;;8.85;6.65;;;8.60;85.30;;;;;;4983793;28;20591;-69
2021/05/01 06:59:03;;;;;;;10.23;6.22;;;8.80;85.30;;;;;;4977724;28;20089;-68
2021/05/01 07:01:30;;;;;;;8.32;6.25;;;8.90;84.10;;;;;;4984794;28;20030;-68
2021/05/01 07:03:56;;;;;;;9.25;6.35;;;8.90;84.50;;;;;;4984565;28;20031;-68
2021/05/01 07:06:22;;;;;;;8.50;5.95;;;8.80;83.70;;;;;;4982509;28;20022;-70
2021/05/01 07:08:48;;;;;;;9.25;6.63;;;8.60;84.50;;;;;;4980653;28;20058;-69
2021/05/01 07:11:14;;;;;;;9.35;6.35;;;8.60;84.30;;;;;;4975430;28;20483;-69
2021/05/01 07:13:40;;;;;;;10.10;6.22;;;9.00;84.80;;;;;;4980475;28;20096;-68
2021/05/01 07:16:11;;;;;;;8.98;6.40;;;9.30;84.20;;;;;;4980874;28;20034;-69
2021/05/01 07:18:41;;;;;;;10.53;6.80;;;9.10;82.60;;;;;;4977752;28;20019;-68
2021/05/01 07:21:08;;;;;;;8.80;6.25;;;9.40;83.00;;;;;;4975191;28;20018;-69
2021/05/01 07:23:33;;;;;;;8.50;6.30;;;9.50;83.00;;;;;;4985200;28;20046;-69
2021/05/01 07:25:59;;;;;;;9.63;6.40;;;9.70;81.50;;;;;;4979936;28;20063;-68
2021/05/01 07:28:26;;;;;;;8.80;5.68;;;9.70;81.70;;;;;;4978633;28;20796;-68
2021/05/01 07:30:54;;;;;;;9.27;6.45;;;9.80;81.30;;;;;;4979676;28;20030;-68
2021/05/01 07:33:55;;;;;;;9.50;6.40;;;10.20;81.80;;;;;;4989424;28;20022;-69
2021/05/01 07:36:33;;;;;;;8.95;6.60;;;10.60;80.00;;;;;;4971162;28;20154;-68
2021/05/01 07:39:02;;;;;;;9.27;6.38;;;10.60;79.10;;;;;;4983054;28;20026;-69
2021/05/01 07:41:29;;;;;;;10.20;6.85;;;10.60;77.70;;;;;;4986039;28;20574;-69
2021/05/01 07:43:59;;;;;;;8.80;6.70;;;11.10;77.40;;;;;;4982427;28;20585;-69
2021/05/01 07:46:28;;;;;;;9.02;6.20;;;11.00;76.50;;;;;;4982037;28;20082;-69
2021/05/01 07:48:54;;;;;;;10.30;6.10;;;10.80;76.10;;;;;;4985175;28;20030;-69
2021/05/01 07:51:21;;;;;;;11.50;6.85;;;11.00;77.10;;;;;;4979934;28;20697;-68
2021/05/01 07:53:47;;;;;;;9.73;6.78;;;11.00;76.30;;;;;;4982612;28;20038;-68
2021/05/01 07:56:12;;;;;;;10.45;7.05;;;10.90;76.90;;;;;;4975577;28;20023;-68
2021/05/01 07:58:38;;;;;;;9.57;7.20;;;10.80;77.00;;;;;;4973823;28;20023;-68
2021/05/01 08:01:04;;;;;;;10.35;7.03;;;10.90;76.60;;;;;;4978150;28;20101;-69
2021/05/01 08:03:30;;;;;;;10.10;6.43;;;11.30;76.00;;;;;;4980159;28;20030;-69
2021/05/01 08:05:55;;;;;;;12.55;6.85;;;11.30;74.70;;;;;;4983770;28;20530;-69
2021/05/01 08:08:21;;;;;;;9.57;6.25;;;11.30;74.40;;;;;;4989161;28;20030;-69
2021/05/01 08:10:47;;;;;;;12.85;7.40;;;11.40;74.60;;;;;;4985576;28;20105;-69
2021/05/01 08:13:12;;;;;;;10.10;7.55;;;11.90;75.50;;;;;;4985379;28;20427;-69
2021/05/01 08:15:38;;;;;;;11.10;7.05;;;12.30;72.90;;;;;;4987945;28;20037;-70
2021/05/01 08:18:06;;;;;;;10.68;7.22;;;12.20;72.20;;;;;;4984601;28;20515;-69
2021/05/01 08:20:33;;;;;;;9.98;7.40;;;12.50;70.80;;;;;;4980887;28;20152;-69
2021/05/01 08:22:59;;;;;;;10.13;6.97;;;12.80;70.90;;;;;;4985210;28;20041;-68
2021/05/01 08:25:25;;;;;;;9.73;7.30;;;12.90;69.40;;;;;;4981388;28;20030;-69
2021/05/01 08:27:51;;;;;;;9.38;7.05;;;13.00;70.00;;;;;;4978720;28;20039;-69
2021/05/01 08:30:19;;;;;;;11.73;7.25;;;12.50;72.50;;;;;;4979284;28;20033;-69
2021/05/01 08:32:45;;;;;;;10.65;8.10;;;12.50;72.20;;;;;;4981140;28;20162;-69
2021/05/01 08:35:12;;;;;;;9.85;7.22;;;12.50;69.40;;;;;;4986985;28;20042;-68
2021/05/01 08:37:38;;;;;;;12.27;7.82;;;12.10;71.80;;;;;;4984861;28;20030;-68
2021/05/01 08:40:05;;;;;;;12.40;7.57;;;12.20;71.20;;;;;;4981493;28;20041;-68
2021/05/01 08:42:31;;;;;;;9.57;6.90;;;12.70;70.40;;;;;;4981474;28;20426;-68
2021/05/01 08:45:02;;;;;;;9.50;7.60;;;13.10;69.70;;;;;;4986921;28;20375;-68
2021/05/01 08:47:33;;;;;;;9.23;7.57;;;13.20;68.10;;;;;;4984807;28;20034;-70
2021/05/01 08:50:03;;;;;;;12.30;7.93;;;13.50;68.00;;;;;;4984741;28;20588;-69
2021/05/01 08:52:29;;;;;;;11.95;8.40;;;13.20;67.10;;;;;;4978965;28;20124;-68
2021/05/01 08:54:54;;;;;;;10.60;7.25;;;13.60;66.90;;;;;;4978584;28;20039;-70
2021/05/01 08:57:29;;;;;;;10.23;8.05;;;14.00;65.90;;;;;;4982298;28;20487;-69
2021/05/01 08:59:55;;;;;;;11.48;8.05;;;14.60;65.00;;;;;;4981762;28;20069;-70
2021/05/01 09:02:25;;;;;;;10.88;7.60;;;14.10;65.30;;;;;;4975954;28;20038;-69
2021/05/01 09:04:52;;;;;;;10.90;8.48;;;14.00;65.20;;;;;;4985445;28;20033;-69
2021/05/01 09:07:19;;;;;;;13.23;8.48;;;14.20;63.50;;;;;;4987246;28;20553;-69
2021/05/01 09:09:55;;;;;;;11.13;8.57;;;13.40;64.50;;;;;;4978314;28;20312;-69
2021/05/01 09:12:45;;;;;;;12.90;7.97;;;13.50;65.40;;;;;;4980971;28;20030;-69
2021/05/01 09:15:18;;;;;;;10.15;7.82;;;12.70;66.70;;;;;;4978623;28;20039;-69
2021/05/01 09:17:46;;;;;;;11.40;8.25;;;12.60;68.90;;;;;;4967710;28;20023;-69
2021/05/01 09:20:15;;;;;;;11.70;7.68;;;12.40;68.80;;;;;;4979910;28;20058;-69
2021/05/01 09:22:51;;;;;;;13.40;7.90;;;12.50;69.50;;;;;;4978957;28;20471;-69
2021/05/01 09:25:18;;;;;;;12.82;8.30;;;12.70;69.00;;;;;;4982602;28;20035;-69
2021/05/01 09:28:01;;;;;;;11.40;7.85;;;12.60;66.80;;;;;;4979752;28;20038;-68
2021/05/01 09:30:30;;;;;;;9.07;7.25;;;12.50;67.70;;;;;;4986621;28;20053;-69
2021/05/01 09:33:27;;;;;;;10.15;7.80;;;12.40;67.90;;;;;;4975722;28;20034;-69
2021/05/01 09:36:03;;;;;;;13.20;8.50;;;12.50;69.10;;;;;;4984799;28;20038;-69
2021/05/01 09:38:34;;;;;;;10.98;7.88;;;12.40;69.80;;;;;;4983283;28;20026;-69
2021/05/01 09:41:07;;;;;;;;;;;12.40;69.70;;;;;;4984761;28;20054;-70
2021/05/01 09:43:32;;;;;;;10.00;7.43;;;12.60;69.30;;;;;;4978359;28;19910;-69
2021/05/01 09:45:58;;;;;;;12.38;7.90;;;12.70;67.80;;;;;;4976321;28;20026;-70
2021/05/01 09:48:24;;;;;;;10.68;8.35;;;13.10;67.70;;;;;;4984415;28;20026;-70
2021/05/01 09:51:03;;;;;;;11.88;8.65;;;13.30;66.60;;;;;;4987092;28;20024;-70
2021/05/01 09:53:28;;;;;;;10.40;8.50;;;13.40;66.40;;;;;;4989909;28;20179;-69
2021/05/01 09:55:54;;;;;;;9.20;7.75;;;13.70;65.30;;;;;;4985790;28;20510;-69
2021/05/01 09:58:25;;;;;;;11.13;8.82;;;13.50;64.20;;;;;;4979769;28;20022;-69
2021/05/01 10:00:53;;;;;;;12.93;9.93;;;13.60;65.00;;;;;;4980775;28;20046;-69
2021/05/01 10:03:19;;;;;;;12.18;9.38;;;13.40;64.20;;;;;;4985057;28;20522;-70
2021/05/01 10:05:46;;;;;;;11.50;8.98;;;13.20;65.00;;;;;;4986267;28;20479;-70
2021/05/01 10:08:14;;;;;;;11.07;8.90;;;13.20;64.70;;;;;;4981827;28;20854;-69
2021/05/01 10:10:41;;;;;;;11.02;9.02;;;13.00;64.60;;;;;;4979942;28;20110;-69
2021/05/01 10:13:07;;;;;;;12.80;8.32;;;12.70;64.40;;;;;;4985691;28;20023;-68
2021/05/01 10:15:33;;;;;;;11.30;9.10;;;12.70;65.90;;;;;;4986408;28;20033;-69
2021/05/01 10:18:10;;;;;;;13.07;9.52;;;12.80;66.20;;;;;;4987226;28;20026;-69
2021/05/01 10:20:42;;;;;;;13.82;9.68;;;13.00;66.60;;;;;;4980290;28;20105;-68
2021/05/01 10:23:09;;;;;;;12.75;9.00;;;12.90;64.70;;;;;;4983782;28;20038;-69
2021/05/01 10:25:35;;;;;;;12.32;9.23;;;13.40;65.50;;;;;;4981221;28;20600;-69
2021/05/01 10:28:07;;;;;;;10.25;8.40;;;13.50;62.90;;;;;;4984579;28;20046;-68
2021/05/01 10:30:42;;;;;;;12.45;10.05;;;13.40;62.90;;;;;;4974664;28;20073;-69
2021/05/01 10:35:54;;;;;;;12.77;8.75;;;14.00;61.80;;;;;;4979401;28;20050;-68
2021/05/01 10:38:21;;;;;;;13.75;9.65;;;14.10;61.50;;;;;;4980142;28;20026;-68
2021/05/01 10:40:56;;;;;;;12.50;8.95;;;14.00;61.90;;;;;;4961834;28;20037;-68
2021/05/01 10:43:24;;;;;;;12.77;8.63;;;14.00;62.50;;;;;;4976458;28;20187;-68
2021/05/01 10:45:52;;;;;;;14.05;9.52;;;13.80;64.00;;;;;;4977118;28;20110;-69
2021/05/01 10:48:18;;;;;;;13.30;9.13;;;13.40;63.80;;;;;;4978872;28;20028;-69
2021/05/01 10:50:44;;;;;;;12.13;9.02;;;13.60;62.70;;;;;;4974395;28;20050;-69
2021/05/01 10:53:19;;;;;;;12.38;9.30;;;13.40;62.30;;;;;;4977669;28;20034;-69
2021/05/01 10:55:47;;;;;;;11.63;9.30;;;13.60;63.80;;;;;;4984481;28;19914;-68
2021/05/01 10:58:31;;;;;;;13.10;9.88;;;13.50;63.70;;;;;;4987142;28;20041;-69
2021/05/01 11:00:57;;;;;;;12.40;9.73;;;13.40;64.60;;;;;;4980753;28;20058;-69
2021/05/01 11:03:25;;;;;;;13.00;9.82;;;13.60;65.40;;;;;;4989530;28;20034;-69
2021/05/01 11:05:54;;;;;;;12.02;9.13;;;13.70;63.80;;;;;;4990175;28;20077;-69
2021/05/01 11:08:36;;;;;;;11.48;8.80;;;14.20;64.30;;;;;;4980573;28;20058;-70
2021/05/01 11:11:02;;;;;;;13.43;9.38;;;14.30;62.60;;;;;;4978658;28;20045;-69
2021/05/01 11:13:32;;;;;;;11.90;9.18;;;14.60;63.70;;;;;;4981769;28;20030;-69
2021/05/01 11:16:04;;;;;;;10.23;8.50;;;14.90;62.30;;;;;;4971273;28;20031;-70
2021/05/01 11:18:35;;;;;;;11.13;8.90;;;15.70;57.70;;;;;;4978654;28;20104;-69
2021/05/01 11:21:03;;;;;;;;;;;16.00;56.40;;;;;;4989936;28;20018;-69
2021/05/01 11:23:30;;;;;;;13.40;8.52;;;16.10;54.70;;;;;;4987977;28;20337;-70
2021/05/01 11:25:59;;;;;;;10.45;8.00;;;16.30;55.80;;;;;;4978678;28;20036;-70
2021/05/01 11:28:25;;;;;;;13.00;8.73;;;15.80;55.30;;;;;;4983849;28;20058;-69
2021/05/01 11:30:53;;;;;;;11.40;8.27;;;15.00;57.10;;;;;;4979864;28;20037;-69
2021/05/01 11:33:23;;;;;;;11.80;7.80;;;14.70;58.50;;;;;;4978465;28;20482;-69
2021/05/01 11:35:50;;;;;;;12.30;9.10;;;14.70;58.30;;;;;;4988421;28;20029;-70
2021/05/01 11:38:24;;;;;;;12.95;8.35;;;13.70;60.10;;;;;;4982263;28;20407;-68
2021/05/01 11:40:53;;;;;;;10.80;7.32;;;13.40;62.90;;;;;;4971148;28;20114;-70
2021/05/01 11:43:24;;;;;;;8.80;6.85;;;12.90;65.80;;;;;;4987860;28;20014;-69
2021/05/01 11:46:10;;;;;;;17.75;8.75;;;12.50;69.60;;;;;;4989649;28;20060;-67
2021/05/01 11:49:00;;;;;;;16.38;9.35;;;12.10;75.70;;;;;;4984142;28;20362;-67
2021/05/01 11:52:09;;;;;;;16.17;9.05;;;11.00;82.50;;;;;;4975066;28;20129;-67
2021/05/01 11:55:08;;;;;;;11.93;8.73;;;10.20;82.80;;;;;;4955094;28;20113;-67
2021/05/01 11:57:50;;;;;;;18.20;10.05;;;9.50;84.50;;;;;;4985960;28;20462;-67
2021/05/01 12:00:40;;;;;;;26.33;13.23;;;9.10;87.60;;;;;;4979517;28;20034;-67
2021/05/01 12:03:26;;;;;;;21.65;13.27;;;8.60;90.20;;;;;;4966284;28;20046;-68
2021/05/01 12:06:00;;;;;;;17.48;10.55;;;8.10;91.10;;;;;;4981850;28;20034;-67
2021/05/01 12:08:27;;;;;;;19.83;12.32;;;7.50;91.50;;;;;;4977530;28;20030;-67
2021/05/01 12:10:55;;;;;;;118.03;46.17;;;7.60;93.30;;;;;;4964314;28;20038;-67
2021/05/01 12:13:36;;;;;;;93.90;37.95;;;7.50;93.80;;;;;;4983040;28;20491;-67
2021/05/01 12:16:04;;;;;;;36.80;19.53;;;7.60;94.40;;;;;;4985191;28;20027;-67
2021/05/01 12:18:46;;;;;;;19.10;14.63;;;7.50;94.00;;;;;;4988768;28;20046;-67
2021/05/01 12:21:22;;;;;;;19.77;13.45;;;7.70;93.90;;;;;;4969761;28;20330;-67
2021/05/01 12:23:50;;;;;;;22.17;15.55;;;7.80;93.60;;;;;;4980089;28;20030;-66
2021/05/01 12:26:36;;;;;;;21.13;17.02;;;8.00;93.90;;;;;;4983962;28;20026;-67
2021/05/01 12:29:23;;;;;;;23.42;17.83;;;8.10;93.50;;;;;;4983656;28;20474;-67
2021/05/01 12:31:51;;;;;;;23.17;16.38;;;8.20;92.90;;;;;;4979287;28;20304;-68
2021/05/01 12:34:18;;;;;;;17.75;14.20;;;8.20;91.90;;;;;;4985041;28;20026;-67
2021/05/01 12:36:51;;;;;;;21.98;16.58;;;8.30;91.90;;;;;;4983060;28;20022;-67
2021/05/01 12:39:19;;;;;;;24.83;18.83;;;8.30;90.30;;;;;;4986019;28;20046;-67
2021/05/01 12:41:49;;;;;;;37.10;22.17;;;8.40;90.50;;;;;;4983176;28;20054;-67
2021/05/01 12:44:34;;;;;;;34.55;24.88;;;8.60;91.50;;;;;;4965935;28;20313;-67
2021/05/01 12:47:01;;;;;;;39.85;26.90;;;8.70;91.60;;;;;;4984675;28;20470;-67
2021/05/01 12:49:29;;;;;;;34.20;22.63;;;9.10;92.80;;;;;;4984435;28;20282;-67